createdAt,value
2017-12-22T00:00:33.871Z,4.03
2017-12-22T00:03:01.009Z,4.67
2017-12-22T00:05:28.567Z,6.03
2017-12-22T00:07:56.016Z,6.33
2017-12-22T00:10:23.632Z,5.30
2017-12-22T00:12:51.868Z,4.10
2017-12-22T00:15:19.225Z,4.07
2017-12-22T00:17:46.585Z,3.23
2017-12-22T00:20:13.841Z,4.37
2017-12-22T00:22:41.008Z,4.00
2017-12-22T00:25:08.416Z,4.37
2017-12-22T00:27:36.537Z,4.60
2017-12-22T00:30:04.012Z,4.03
2017-12-22T00:32:31.767Z,4.10
2017-12-22T00:34:59.233Z,4.60
2017-12-22T00:37:26.491Z,4.53
2017-12-22T00:39:53.800Z,3.80
2017-12-22T00:42:21.815Z,5.17
2017-12-22T00:44:49.287Z,6.30
2017-12-22T00:47:16.593Z,5.20
2017-12-22T00:49:43.905Z,5.13
2017-12-22T00:52:11.156Z,3.20
2017-12-22T00:54:38.620Z,3.83
2017-12-22T00:57:05.984Z,4.30
2017-12-22T00:59:33.648Z,5.73
2017-12-22T01:02:01.513Z,6.23
2017-12-22T01:04:29.088Z,5.80
2017-12-22T01:06:56.583Z,3.70
2017-12-22T01:09:24.004Z,4.53
2017-12-22T01:11:51.364Z,5.40
2017-12-22T01:14:19.137Z,4.00
2017-12-22T01:16:52.940Z,5.57
2017-12-22T01:19:20.603Z,5.70
2017-12-22T01:21:48.079Z,7.33
2017-12-22T01:24:15.645Z,8.80
2017-12-22T01:26:43.096Z,7.70
2017-12-22T01:29:10.352Z,6.20
2017-12-22T01:31:37.712Z,6.60
2017-12-22T01:34:05.159Z,5.30
2017-12-22T01:36:32.641Z,3.90
2017-12-22T01:39:00.100Z,6.57
2017-12-22T01:41:27.564Z,4.97
2017-12-22T01:43:55.234Z,3.90
2017-12-22T01:46:23.307Z,5.97
2017-12-22T01:48:51.131Z,5.13
2017-12-22T01:51:18.388Z,5.50
2017-12-22T01:53:46.505Z,7.80
2017-12-22T01:56:13.863Z,5.77
2017-12-22T01:58:41.224Z,6.30
2017-12-22T02:01:08.409Z,6.20
2017-12-22T02:03:35.850Z,6.60
2017-12-22T02:06:03.311Z,6.07
2017-12-22T02:08:30.668Z,6.03
2017-12-22T02:10:58.241Z,7.73
2017-12-22T02:13:25.610Z,6.33
2017-12-22T02:15:53.160Z,8.20
2017-12-22T02:18:20.475Z,5.03
2017-12-22T02:20:48.696Z,5.93
2017-12-22T02:23:16.150Z,8.00
2017-12-22T02:25:43.518Z,5.40
2017-12-22T02:28:10.872Z,4.50
2017-12-22T02:30:39.057Z,5.20
2017-12-22T02:33:06.713Z,4.53
2017-12-22T02:35:33.972Z,6.97
2017-12-22T02:38:01.128Z,5.83
2017-12-22T02:40:28.396Z,5.47
2017-12-22T02:42:55.856Z,7.10
2017-12-22T02:45:23.523Z,6.30
2017-12-22T02:47:51.090Z,5.20
2017-12-22T02:50:18.342Z,5.77
2017-12-22T02:52:45.904Z,5.60
2017-12-22T02:55:13.168Z,5.27
2017-12-22T02:57:40.420Z,5.93
2017-12-22T03:00:07.681Z,5.43
2017-12-22T03:02:35.240Z,5.30
2017-12-22T03:05:02.601Z,6.77
2017-12-22T03:07:29.955Z,7.30
2017-12-22T03:09:58.163Z,8.00
2017-12-22T03:12:25.406Z,8.40
2017-12-22T03:14:52.763Z,6.93
2017-12-22T03:17:35.056Z,5.30
2017-12-22T03:20:02.723Z,4.30
2017-12-22T03:22:30.090Z,6.30
2017-12-22T03:24:57.560Z,6.40
2017-12-22T03:27:26.647Z,4.90
2017-12-22T03:29:54.105Z,4.90
2017-12-22T03:32:21.572Z,4.70
2017-12-22T03:34:48.871Z,4.57
2017-12-22T03:37:17.923Z,4.40
2017-12-22T03:39:45.490Z,4.80
2017-12-22T03:42:13.051Z,4.43
2017-12-22T03:44:40.520Z,5.00
2017-12-22T03:47:08.696Z,3.80
2017-12-22T03:49:35.878Z,4.57
2017-12-22T03:52:03.417Z,7.23
2017-12-22T03:54:30.977Z,5.90
2017-12-22T03:56:58.475Z,5.17
2017-12-22T03:59:25.905Z,4.93
2017-12-22T04:01:53.468Z,5.03
2017-12-22T04:04:21.032Z,4.93
2017-12-22T04:06:48.160Z,4.50
2017-12-22T04:09:16.267Z,5.07
2017-12-22T04:11:43.729Z,4.50
2017-12-22T04:14:11.182Z,5.43
2017-12-22T04:16:38.440Z,4.63
2017-12-22T04:19:06.008Z,6.53
2017-12-22T04:21:33.468Z,5.53
2017-12-22T04:24:00.832Z,5.57
2017-12-22T04:26:28.190Z,4.30
2017-12-22T04:28:55.446Z,4.73
2017-12-22T04:31:22.601Z,4.97
2017-12-22T04:33:49.960Z,6.83
2017-12-22T04:36:18.040Z,7.93
2017-12-22T04:38:45.601Z,5.03
2017-12-22T04:41:13.167Z,7.90
2017-12-22T04:43:40.524Z,8.10
2017-12-22T04:46:07.994Z,6.83
2017-12-22T04:48:35.760Z,6.90
2017-12-22T04:51:03.216Z,5.33
2017-12-22T04:53:30.787Z,4.70
2017-12-22T04:55:58.046Z,7.33
2017-12-22T04:58:25.601Z,5.27
2017-12-22T05:00:53.197Z,4.60
2017-12-22T05:03:21.342Z,5.30
2017-12-22T05:05:49.419Z,6.33
2017-12-22T05:08:16.883Z,5.30
2017-12-22T05:10:44.353Z,6.67
2017-12-22T05:13:11.710Z,4.50
2017-12-22T05:15:39.584Z,6.90
2017-12-22T05:18:06.935Z,6.90
2017-12-22T05:20:34.299Z,8.10
2017-12-22T05:23:01.561Z,7.87
2017-12-22T05:25:29.607Z,4.60
2017-12-22T05:27:56.940Z,5.80
2017-12-22T05:30:24.355Z,4.63
2017-12-22T05:32:51.603Z,6.70
2017-12-22T05:35:19.173Z,6.23
2017-12-22T05:37:46.816Z,5.97
2017-12-22T05:40:14.014Z,8.47
2017-12-22T05:42:43.119Z,8.57
2017-12-22T05:45:10.184Z,6.80
2017-12-22T05:47:37.228Z,8.50
2017-12-22T05:50:04.391Z,10.53
2017-12-22T05:52:31.641Z,9.50
2017-12-22T05:54:58.718Z,9.33
2017-12-22T05:57:26.155Z,8.97
2017-12-22T05:59:53.307Z,9.70
2017-12-22T06:02:20.670Z,9.30
2017-12-22T06:04:47.824Z,9.40
2017-12-22T06:07:29.829Z,9.43
2017-12-22T06:09:56.811Z,6.13
2017-12-22T06:12:24.535Z,9.10
2017-12-22T06:14:51.687Z,10.23
2017-12-22T06:17:18.851Z,6.53
2017-12-22T06:19:46.007Z,6.93
2017-12-22T06:22:12.956Z,6.37
2017-12-22T06:24:40.313Z,6.77
2017-12-22T06:27:07.364Z,5.07
2017-12-22T06:29:34.529Z,5.60
2017-12-22T06:32:01.572Z,8.33
2017-12-22T06:34:28.725Z,7.60
2017-12-22T06:36:55.889Z,6.10
2017-12-22T06:39:23.042Z,14.80
2017-12-22T06:41:50.087Z,14.23
2017-12-22T06:44:17.238Z,12.57
2017-12-22T06:46:44.499Z,8.83
2017-12-22T06:49:11.451Z,8.80
2017-12-22T06:51:39.319Z,7.17
2017-12-22T06:54:07.191Z,8.77
2017-12-22T06:56:34.151Z,7.20
2017-12-22T06:59:01.204Z,7.03
2017-12-22T07:01:28.347Z,9.03
2017-12-22T07:03:55.403Z,8.33
2017-12-22T07:06:22.767Z,8.27
2017-12-22T07:08:49.870Z,9.60
2017-12-22T07:11:17.077Z,6.23
2017-12-22T07:13:44.436Z,7.83
2017-12-22T07:16:12.141Z,5.80
2017-12-22T07:18:39.871Z,7.23
2017-12-22T07:21:07.029Z,6.60
2017-12-22T07:23:33.980Z,8.40
2017-12-22T07:26:01.236Z,10.03
2017-12-22T07:28:28.588Z,7.20
2017-12-22T07:30:55.648Z,9.97
2017-12-22T07:33:22.695Z,6.90
2017-12-22T07:35:49.752Z,5.80
2017-12-22T07:38:16.703Z,6.87
2017-12-22T07:40:43.763Z,8.50
2017-12-22T07:43:11.015Z,8.50
2017-12-22T07:45:38.780Z,7.10
2017-12-22T07:48:05.837Z,9.87
2017-12-22T07:50:32.889Z,7.80
2017-12-22T07:53:00.043Z,5.70
2017-12-22T07:55:26.991Z,9.47
2017-12-22T07:57:54.351Z,8.37
2017-12-22T08:00:21.399Z,5.37
2017-12-22T08:02:48.516Z,6.63
2017-12-22T08:05:15.717Z,8.23
2017-12-22T08:07:42.972Z,7.87
2017-12-22T08:10:10.227Z,7.60
2017-12-22T08:12:37.399Z,9.43
2017-12-22T08:15:04.554Z,7.83
2017-12-22T08:17:32.383Z,8.23
2017-12-22T08:19:59.568Z,9.37
2017-12-22T08:22:26.577Z,9.20
2017-12-22T08:24:53.883Z,10.07
2017-12-22T08:27:21.135Z,7.00
2017-12-22T08:29:48.301Z,7.20
2017-12-22T08:32:17.092Z,10.47
2017-12-22T08:34:44.963Z,8.10
2017-12-22T08:37:13.908Z,11.30
2017-12-22T08:39:41.005Z,10.80
2017-12-22T08:42:08.132Z,7.87
2017-12-22T08:44:35.415Z,9.20
2017-12-22T08:47:02.468Z,9.40
2017-12-22T08:49:29.623Z,8.40
2017-12-22T08:51:56.782Z,9.47
2017-12-22T08:54:24.139Z,9.07
2017-12-22T08:56:51.197Z,11.73
2017-12-22T08:59:18.251Z,9.70
2017-12-22T09:01:45.609Z,8.10
2017-12-22T09:04:12.655Z,7.80
2017-12-22T09:06:40.632Z,9.10
2017-12-22T09:09:08.095Z,9.30
2017-12-22T09:11:35.243Z,7.93
2017-12-22T09:14:02.514Z,9.83
2017-12-22T09:16:30.375Z,9.77
2017-12-22T09:18:57.836Z,7.10
2017-12-22T09:21:24.961Z,9.93
2017-12-22T09:23:52.151Z,8.53
2017-12-22T09:26:19.299Z,9.43
2017-12-22T09:28:46.353Z,9.67
2017-12-22T09:31:13.690Z,10.17
2017-12-22T09:33:40.837Z,12.10
2017-12-22T09:36:08.129Z,11.73
2017-12-22T09:38:35.381Z,13.73
2017-12-22T09:41:02.553Z,11.90
2017-12-22T09:43:32.198Z,14.67
2017-12-22T09:46:00.028Z,14.60
2017-12-22T09:48:27.005Z,12.23
2017-12-22T09:50:54.856Z,9.80
2017-12-22T09:53:23.641Z,8.90
2017-12-22T09:55:50.766Z,9.13
2017-12-22T09:58:17.844Z,9.67
2017-12-22T10:00:44.899Z,10.30
2017-12-22T10:03:12.048Z,11.10
2017-12-22T10:05:39.919Z,10.73
2017-12-22T10:08:07.387Z,10.50
2017-12-22T10:10:34.436Z,13.53
2017-12-22T10:13:01.469Z,10.77
2017-12-22T10:15:28.444Z,12.97
2017-12-22T10:17:55.652Z,12.67
2017-12-22T10:20:22.757Z,8.93
2017-12-22T10:22:49.804Z,11.13
2017-12-22T10:25:17.033Z,7.70
2017-12-22T10:27:44.115Z,10.00
2017-12-22T10:30:11.174Z,9.83
2017-12-22T10:32:38.396Z,7.77
2017-12-22T10:35:05.677Z,9.10
2017-12-22T10:37:32.732Z,8.77
2017-12-22T10:39:59.827Z,7.93
2017-12-22T10:42:27.863Z,7.60
2017-12-22T10:44:54.811Z,9.50
2017-12-22T10:47:22.275Z,9.27
2017-12-22T10:49:49.435Z,7.97
2017-12-22T10:52:16.484Z,7.83
2017-12-22T10:54:43.532Z,9.27
2017-12-22T10:57:10.691Z,8.83
2017-12-22T10:59:37.739Z,6.40
2017-12-22T11:02:04.900Z,9.13
2017-12-22T11:04:32.061Z,10.70
2017-12-22T11:06:59.126Z,11.57
2017-12-22T11:09:26.469Z,11.50
2017-12-22T11:11:53.518Z,9.30
2017-12-22T11:14:20.583Z,8.37
2017-12-22T11:16:48.547Z,9.43
2017-12-22T11:19:15.707Z,9.00
2017-12-22T11:21:42.756Z,8.13
2017-12-22T11:24:09.887Z,10.40
2017-12-22T11:26:37.059Z,9.20
2017-12-22T11:29:04.116Z,10.50
2017-12-22T11:31:31.204Z,8.50
2017-12-22T11:33:58.436Z,13.20
2017-12-22T11:36:25.692Z,13.50
2017-12-22T11:38:52.741Z,11.50
2017-12-22T11:41:19.794Z,10.20
2017-12-22T11:43:47.227Z,9.47
2017-12-22T11:46:14.410Z,8.63
2017-12-22T11:48:41.563Z,8.77
2017-12-22T11:51:08.719Z,12.67
2017-12-22T11:53:35.918Z,12.17
2017-12-22T11:56:03.852Z,11.40
2017-12-22T11:58:30.895Z,10.40
2017-12-22T12:00:58.237Z,8.10
2017-12-22T12:03:25.426Z,6.43
2017-12-22T12:05:54.474Z,9.00
2017-12-22T12:08:21.453Z,9.47
2017-12-22T12:10:48.519Z,7.30
2017-12-22T12:13:17.426Z,8.27
2017-12-22T12:15:45.599Z,9.63
2017-12-22T12:18:12.783Z,10.37
2017-12-22T12:20:40.718Z,9.00
2017-12-22T12:23:07.851Z,10.50
2017-12-22T12:25:34.931Z,10.40
2017-12-22T12:28:01.989Z,8.50
2017-12-22T12:30:29.037Z,11.27
2017-12-22T12:32:56.183Z,11.00
2017-12-22T12:35:23.395Z,10.60
2017-12-22T12:37:50.604Z,10.20
2017-12-22T12:40:17.700Z,9.87
2017-12-22T12:42:45.519Z,10.00
2017-12-22T12:45:12.887Z,10.20
2017-12-22T12:47:39.974Z,7.23
2017-12-22T12:50:07.908Z,7.40
2017-12-22T12:52:35.143Z,9.63
2017-12-22T12:55:02.156Z,10.80
2017-12-22T12:57:29.887Z,8.40
2017-12-22T12:59:57.148Z,12.20
2017-12-22T13:02:24.199Z,9.23
2017-12-22T13:04:52.171Z,7.73
2017-12-22T13:07:19.479Z,9.67
2017-12-22T13:09:46.628Z,7.70
2017-12-22T13:12:14.469Z,6.63
2017-12-22T13:14:42.323Z,12.57
2017-12-22T13:17:10.301Z,10.83
2017-12-22T13:19:37.361Z,11.87
2017-12-22T13:22:04.404Z,9.97
2017-12-22T13:24:31.669Z,7.73
2017-12-22T13:26:58.823Z,8.87
2017-12-22T13:29:25.883Z,7.13
2017-12-22T13:31:52.923Z,7.20
2017-12-22T13:34:19.989Z,6.90
2017-12-22T13:36:47.100Z,8.30
2017-12-22T13:39:14.495Z,10.17
2017-12-22T13:41:41.586Z,9.43
2017-12-22T13:44:09.495Z,11.10
2017-12-22T13:46:36.675Z,6.33
2017-12-22T13:49:03.932Z,6.57
2017-12-22T13:51:31.091Z,8.70
2017-12-22T13:53:58.130Z,10.47
2017-12-22T13:56:25.188Z,12.90
2017-12-22T13:58:52.395Z,11.67
2017-12-22T14:01:20.316Z,12.10
2017-12-22T14:03:47.366Z,12.57
2017-12-22T14:06:14.530Z,11.30
2017-12-22T14:08:41.579Z,9.10
2017-12-22T14:11:09.859Z,7.80
2017-12-22T14:13:36.911Z,7.70
2017-12-22T14:16:04.908Z,9.67
2017-12-22T14:18:31.940Z,11.93
2017-12-22T14:20:59.191Z,10.87
2017-12-22T14:23:26.303Z,9.00
2017-12-22T14:25:53.509Z,10.27
2017-12-22T14:28:20.667Z,11.10
2017-12-22T14:30:48.131Z,11.83
2017-12-22T14:33:15.189Z,10.43
2017-12-22T14:35:42.333Z,10.77
2017-12-22T14:38:09.583Z,11.27
2017-12-22T14:40:36.643Z,12.27
2017-12-22T14:43:04.619Z,13.20
2017-12-22T14:45:31.877Z,11.87
2017-12-22T14:47:59.236Z,11.80
2017-12-22T14:50:26.278Z,10.40
2017-12-22T14:52:53.339Z,9.40
2017-12-22T14:55:21.316Z,9.60
2017-12-22T14:57:48.467Z,9.30
2017-12-22T15:00:15.518Z,8.33
2017-12-22T15:02:42.675Z,7.43
2017-12-22T15:05:09.841Z,10.13
2017-12-22T15:07:37.911Z,11.20
2017-12-22T15:10:04.956Z,7.57
2017-12-22T15:12:32.012Z,8.30
2017-12-22T15:14:59.164Z,7.77
2017-12-22T15:17:26.220Z,7.30
2017-12-22T15:19:53.580Z,11.80
2017-12-22T15:22:21.347Z,7.30
2017-12-22T15:24:48.813Z,8.93
2017-12-22T15:27:15.860Z,7.40
2017-12-22T15:29:42.924Z,8.50
2017-12-22T15:32:10.991Z,7.67
2017-12-22T15:34:38.045Z,6.80
2017-12-22T15:37:05.300Z,9.43
2017-12-22T15:39:32.361Z,11.80
2017-12-22T15:42:02.278Z,9.10
2017-12-22T15:44:29.418Z,8.90
2017-12-22T15:46:56.478Z,9.80
2017-12-22T15:49:24.421Z,14.47
2017-12-22T15:51:51.710Z,12.73
2017-12-22T15:54:18.964Z,9.17
2017-12-22T15:56:46.024Z,6.57
2017-12-22T15:59:13.991Z,8.00
2017-12-22T16:01:40.947Z,9.37
2017-12-22T16:04:07.935Z,11.10
2017-12-22T16:06:35.867Z,13.50
2017-12-22T16:09:03.051Z,9.97
2017-12-22T16:11:30.075Z,14.10
2017-12-22T16:13:57.133Z,17.03
2017-12-22T16:16:24.179Z,18.17
2017-12-22T16:18:51.237Z,14.77
2017-12-22T16:21:18.393Z,11.60
2017-12-22T16:23:45.505Z,10.47
2017-12-22T16:26:12.596Z,11.93
2017-12-22T16:28:39.647Z,21.40
2017-12-22T16:31:06.947Z,14.70
2017-12-22T16:33:34.883Z,14.70
2017-12-22T16:36:01.870Z,17.33
2017-12-22T16:38:29.907Z,15.10
2017-12-22T16:40:56.965Z,18.17
2017-12-22T16:43:24.124Z,11.60
2017-12-22T16:45:51.170Z,12.37
2017-12-22T16:48:18.276Z,8.70
2017-12-22T16:50:45.476Z,8.10
2017-12-22T16:53:12.644Z,12.07
2017-12-22T16:55:41.333Z,10.67
2017-12-22T16:58:08.581Z,8.67
2017-12-22T17:00:35.748Z,13.50
2017-12-22T17:03:03.105Z,17.23
2017-12-22T17:05:30.262Z,10.33
2017-12-22T17:07:58.746Z,19.90
2017-12-22T17:10:25.995Z,14.97
2017-12-22T17:12:53.052Z,10.80
2017-12-22T17:15:20.204Z,10.50
2017-12-22T17:17:47.195Z,9.27
2017-12-22T17:20:15.639Z,9.93
2017-12-22T17:22:42.795Z,9.70
2017-12-22T17:25:09.900Z,11.10
2017-12-22T17:27:37.219Z,12.73
2017-12-22T17:30:05.996Z,12.30
2017-12-22T17:32:33.156Z,13.90
2017-12-22T17:35:00.309Z,12.13
2017-12-22T17:37:27.364Z,13.03
2017-12-22T17:39:54.419Z,15.13
2017-12-22T17:42:21.676Z,12.10
2017-12-22T17:44:48.693Z,9.00
2017-12-22T17:47:15.882Z,11.30
2017-12-22T17:49:42.916Z,11.03
2017-12-22T17:52:09.990Z,9.60
2017-12-22T17:54:37.093Z,11.80
2017-12-22T17:57:04.189Z,11.33
2017-12-22T17:59:31.177Z,13.83
2017-12-22T18:01:59.110Z,15.80
2017-12-22T18:04:26.269Z,12.50
2017-12-22T18:06:53.422Z,8.90
2017-12-22T18:09:20.707Z,10.40
2017-12-22T18:11:49.175Z,13.60
2017-12-22T18:14:16.117Z,10.50
2017-12-22T18:16:43.163Z,13.60
2017-12-22T18:19:10.227Z,23.83
2017-12-22T18:21:37.324Z,12.77
2017-12-22T18:24:05.260Z,8.50
2017-12-22T18:26:34.310Z,8.77
2017-12-22T18:29:01.472Z,8.67
2017-12-22T18:31:28.767Z,10.40
2017-12-22T18:33:55.819Z,17.47
2017-12-22T18:36:23.175Z,9.77
2017-12-22T18:38:50.334Z,8.70
2017-12-22T18:41:17.627Z,12.20
2017-12-22T18:43:45.463Z,15.40
2017-12-22T18:46:12.512Z,9.10
2017-12-22T18:48:39.565Z,9.73
2017-12-22T18:51:06.623Z,9.07
2017-12-22T18:53:33.980Z,12.10
2017-12-22T18:56:01.135Z,17.33
2017-12-22T18:58:28.197Z,11.07
2017-12-22T19:00:57.283Z,15.13
2017-12-22T19:03:30.477Z,15.10
2017-12-22T19:05:57.942Z,16.47
2017-12-22T19:08:25.209Z,14.63
2017-12-22T19:10:52.674Z,12.97
2017-12-22T19:13:19.846Z,14.93
2017-12-22T19:15:47.796Z,11.23
2017-12-22T19:18:15.739Z,15.00
2017-12-22T19:20:42.827Z,12.93
2017-12-22T19:23:09.764Z,9.90
2017-12-22T19:25:36.774Z,14.00
2017-12-22T19:28:03.771Z,11.30
2017-12-22T19:30:31.039Z,7.90
2017-12-22T19:32:59.583Z,12.97
2017-12-22T19:35:26.758Z,10.90
2017-12-22T19:37:53.924Z,8.63
2017-12-22T19:40:21.179Z,10.13
2017-12-22T19:42:48.236Z,8.70
2017-12-22T19:45:15.394Z,8.43
2017-12-22T19:47:43.270Z,13.03
2017-12-22T19:50:10.354Z,9.50
2017-12-22T19:52:38.305Z,10.37
2017-12-22T19:55:05.516Z,11.50
2017-12-22T19:57:32.700Z,8.20
2017-12-22T19:59:59.819Z,10.70
2017-12-22T20:02:27.015Z,7.90
2017-12-22T20:04:54.138Z,12.07
2017-12-22T20:07:21.248Z,9.27
2017-12-22T20:09:49.295Z,8.23
2017-12-22T20:12:16.390Z,9.87
2017-12-22T20:14:44.253Z,7.93
2017-12-22T20:17:12.037Z,7.53
2017-12-22T20:19:39.244Z,14.17
2017-12-22T20:22:06.710Z,17.10
2017-12-22T20:24:33.764Z,12.73
2017-12-22T20:27:00.739Z,9.63
2017-12-22T20:29:27.763Z,11.70
2017-12-22T20:31:54.707Z,15.83
2017-12-22T20:34:21.773Z,9.70
2017-12-22T20:36:48.935Z,9.10
2017-12-22T20:39:16.804Z,7.97
2017-12-22T20:41:44.669Z,13.10
2017-12-22T20:44:12.135Z,10.17
2017-12-22T20:46:39.386Z,8.90
2017-12-22T20:49:06.642Z,9.50
2017-12-22T20:51:33.807Z,11.80
2017-12-22T20:54:00.899Z,14.87
2017-12-22T20:56:29.124Z,12.10
2017-12-22T20:58:56.263Z,9.33
2017-12-22T21:01:23.442Z,13.80
2017-12-22T21:03:50.504Z,16.40
2017-12-22T21:06:17.651Z,15.23
2017-12-22T21:08:44.793Z,9.53
2017-12-22T21:11:11.996Z,14.20
2017-12-22T21:13:40.007Z,18.40
2017-12-22T21:16:07.092Z,16.73
2017-12-22T21:18:34.136Z,10.87
2017-12-22T21:21:01.301Z,11.10
2017-12-22T21:23:28.487Z,9.80
2017-12-22T21:25:56.457Z,14.63
2017-12-22T21:28:24.509Z,13.97
2017-12-22T21:30:52.372Z,16.97
2017-12-22T21:33:19.425Z,16.40
2017-12-22T21:35:46.587Z,12.60
2017-12-22T21:38:14.245Z,9.10
2017-12-22T21:40:42.429Z,9.27
2017-12-22T21:43:09.701Z,11.97
2017-12-22T21:45:37.455Z,13.63
2017-12-22T21:48:04.493Z,12.67
2017-12-22T21:53:34.157Z,17.80
2017-12-22T21:56:01.244Z,16.10
2017-12-22T21:58:28.398Z,14.37
2017-12-22T22:00:54.708Z,12.87
2017-12-22T22:03:21.092Z,11.63
2017-12-22T22:05:48.438Z,11.70
2017-12-22T22:08:14.806Z,9.17
2017-12-22T22:10:41.868Z,9.13
2017-12-22T22:13:08.668Z,11.33
2017-12-22T22:15:35.924Z,13.23
2017-12-22T22:18:03.160Z,10.97
2017-12-22T22:20:30.340Z,12.40
2017-12-22T22:22:57.583Z,13.00
2017-12-22T22:25:24.857Z,11.87
2017-12-22T22:27:52.211Z,8.27
2017-12-22T22:30:19.368Z,13.67
2017-12-22T22:32:46.629Z,10.57
2017-12-22T22:35:13.690Z,8.27
2017-12-22T22:37:40.837Z,12.20
2017-12-22T22:40:08.125Z,7.93
2017-12-22T22:42:36.098Z,13.17
2017-12-22T22:45:03.942Z,9.97
2017-12-22T22:47:31.215Z,9.30
2017-12-22T22:49:58.377Z,7.67
2017-12-22T22:52:25.849Z,10.87
2017-12-22T22:54:53.704Z,12.73
2017-12-22T22:57:21.053Z,7.67
2017-12-22T22:59:49.156Z,11.50
2017-12-22T23:02:17.077Z,6.80
2017-12-22T23:04:44.156Z,13.03
2017-12-22T23:07:12.853Z,8.70
2017-12-22T23:09:39.998Z,8.10
2017-12-22T23:12:07.253Z,7.03
2017-12-22T23:14:34.404Z,10.07
2017-12-22T23:17:01.453Z,7.73
2017-12-22T23:19:29.067Z,9.40
2017-12-22T23:21:56.174Z,8.43
2017-12-22T23:24:23.327Z,6.23
2017-12-22T23:26:51.917Z,7.27
2017-12-22T23:29:19.071Z,6.20
2017-12-22T23:31:52.379Z,6.57
2017-12-22T23:34:20.135Z,6.67
2017-12-22T23:36:47.470Z,7.70
2017-12-22T23:39:14.753Z,7.90
2017-12-22T23:41:43.138Z,8.47
2017-12-22T23:44:10.391Z,8.77
2017-12-22T23:46:37.539Z,10.07
2017-12-22T23:49:04.720Z,7.37
2017-12-22T23:51:32.271Z,11.00
2017-12-22T23:53:59.527Z,7.10
2017-12-22T23:56:26.584Z,6.83
2017-12-22T23:58:53.627Z,5.80
